createdAt,value
2023-05-05T00:00:20.918Z,3.40
2023-05-05T00:02:48.237Z,3.03
2023-05-05T00:05:14.992Z,3.08
2023-05-05T00:07:41.963Z,2.90
2023-05-05T00:10:09.750Z,3.10
2023-05-05T00:12:36.872Z,3.00
2023-05-05T00:15:03.969Z,3.45
2023-05-05T00:17:30.866Z,3.25
2023-05-05T00:19:58.094Z,2.97
2023-05-05T00:22:24.765Z,3.67
2023-05-05T00:24:51.465Z,3.38
2023-05-05T00:27:18.170Z,3.78
2023-05-05T00:29:44.855Z,3.50
2023-05-05T00:32:11.589Z,3.95
2023-05-05T00:34:38.293Z,3.93
2023-05-05T00:37:05.031Z,3.60
2023-05-05T00:39:33.283Z,3.83
2023-05-05T00:42:00.037Z,3.22
2023-05-05T00:44:41.087Z,3.80
2023-05-05T00:47:11.455Z,3.30
2023-05-05T00:49:38.324Z,3.63
2023-05-05T00:52:05.414Z,4.30
2023-05-05T00:54:32.429Z,4.28
2023-05-05T00:56:59.115Z,3.90
2023-05-05T00:59:25.893Z,3.30
2023-05-05T01:01:52.748Z,3.40
2023-05-05T01:04:19.490Z,3.83
2023-05-05T01:06:54.741Z,3.33
2023-05-05T01:09:47.243Z,3.55
2023-05-05T01:12:41.777Z,2.90
2023-05-05T01:15:15.911Z,3.25
2023-05-05T01:17:56.115Z,3.15
2023-05-05T01:21:01.622Z,2.92
2023-05-05T01:23:36.993Z,3.08
2023-05-05T01:26:29.852Z,3.33
2023-05-05T01:29:22.926Z,2.90
2023-05-05T01:31:53.747Z,2.80
2023-05-05T01:34:34.542Z,2.80
2023-05-05T01:37:22.364Z,2.80
2023-05-05T01:39:53.367Z,2.90
2023-05-05T01:42:20.097Z,2.65
2023-05-05T01:44:46.797Z,2.78
2023-05-05T01:47:16.188Z,2.47
2023-05-05T01:49:47.105Z,3.00
2023-05-05T01:52:14.890Z,2.97
2023-05-05T01:54:42.402Z,3.28
2023-05-05T01:57:09.256Z,2.88
2023-05-05T01:59:37.013Z,2.63
2023-05-05T02:02:03.874Z,2.55
2023-05-05T02:04:31.807Z,2.87
2023-05-05T02:06:58.641Z,2.47
2023-05-05T02:09:25.732Z,2.63
2023-05-05T02:11:52.980Z,2.60
2023-05-05T02:14:19.868Z,2.60
2023-05-05T02:16:46.919Z,2.33
2023-05-05T02:19:14.108Z,2.55
2023-05-05T02:21:41.390Z,2.70
2023-05-05T02:24:08.761Z,3.00
2023-05-05T02:26:36.158Z,2.90
2023-05-05T02:29:11.154Z,2.77
2023-05-05T02:31:45.787Z,2.72
2023-05-05T02:34:12.572Z,2.33
2023-05-05T02:36:40.043Z,2.75
2023-05-05T02:39:14.729Z,2.33
2023-05-05T02:41:41.692Z,2.30
2023-05-05T02:44:08.575Z,2.35
2023-05-05T02:46:35.658Z,2.05
2023-05-05T02:49:02.380Z,2.72
2023-05-05T02:51:29.081Z,2.40
2023-05-05T02:53:56.368Z,2.30
2023-05-05T02:56:32.781Z,2.65
2023-05-05T02:59:18.178Z,2.22
2023-05-05T03:02:01.150Z,2.28
2023-05-05T03:04:31.988Z,2.40
2023-05-05T03:06:59.885Z,2.30
2023-05-05T03:09:51.396Z,2.15
2023-05-05T03:12:21.762Z,2.20
2023-05-05T03:14:48.879Z,2.40
2023-05-05T03:17:15.570Z,2.22
2023-05-05T03:19:43.220Z,2.50
2023-05-05T03:22:10.067Z,2.50
2023-05-05T03:24:36.865Z,2.15
2023-05-05T03:27:03.604Z,2.33
2023-05-05T03:29:30.310Z,2.08
2023-05-05T03:31:57.115Z,2.67
2023-05-05T03:34:23.907Z,2.10
2023-05-05T03:36:50.663Z,2.30
2023-05-05T03:39:18.860Z,2.20
2023-05-05T03:41:45.687Z,2.13
2023-05-05T03:44:12.395Z,2.20
2023-05-05T03:46:39.269Z,2.03
2023-05-05T03:49:05.958Z,2.08
2023-05-05T03:51:32.720Z,1.90
2023-05-05T03:53:59.451Z,2.28
2023-05-05T03:56:26.172Z,1.90
2023-05-05T03:58:52.909Z,1.95
2023-05-05T04:01:19.603Z,1.98
2023-05-05T04:03:46.443Z,2.05
2023-05-05T04:06:13.284Z,2.00
2023-05-05T04:08:40.087Z,1.90
2023-05-05T04:11:07.017Z,2.00
2023-05-05T04:13:33.720Z,2.25
2023-05-05T04:16:00.480Z,1.98
2023-05-05T04:18:27.211Z,2.25
2023-05-05T04:20:53.945Z,1.87
2023-05-05T04:23:20.700Z,1.92
2023-05-05T04:25:47.756Z,1.70
2023-05-05T04:28:14.502Z,1.92
2023-05-05T04:30:41.280Z,1.75
2023-05-05T04:33:08.060Z,1.80
2023-05-05T04:35:34.894Z,1.85
2023-05-05T04:38:02.003Z,1.83
2023-05-05T04:40:28.735Z,1.85
2023-05-05T04:42:55.524Z,1.90
2023-05-05T04:45:22.305Z,1.57
2023-05-05T04:47:49.118Z,1.80
2023-05-05T04:50:16.650Z,1.90
2023-05-05T04:52:43.339Z,1.95
2023-05-05T04:55:10.841Z,2.10
2023-05-05T04:57:37.619Z,1.90
2023-05-05T05:00:05.594Z,1.90
2023-05-05T05:02:32.612Z,2.17
2023-05-05T05:04:59.391Z,1.75
2023-05-05T05:07:26.464Z,1.85
2023-05-05T05:09:53.178Z,1.87
2023-05-05T05:12:19.933Z,1.70
2023-05-05T05:14:46.718Z,1.90
2023-05-05T05:17:13.571Z,1.55
2023-05-05T05:19:40.297Z,1.25
2023-05-05T05:22:06.976Z,1.60
2023-05-05T05:24:34.862Z,1.80
2023-05-05T05:27:01.682Z,1.90
2023-05-05T05:29:28.423Z,1.55
2023-05-05T05:31:55.135Z,2.10
2023-05-05T05:34:21.830Z,1.77
2023-05-05T05:36:48.572Z,1.92
2023-05-05T05:39:15.332Z,1.83
2023-05-05T05:41:42.159Z,1.92
2023-05-05T05:44:08.850Z,1.65
2023-05-05T05:46:35.694Z,2.10
2023-05-05T05:49:02.537Z,1.70
2023-05-05T05:51:29.324Z,2.03
2023-05-05T05:53:58.685Z,1.77
2023-05-05T05:56:25.600Z,1.98
2023-05-05T05:58:52.441Z,1.77
2023-05-05T06:01:19.518Z,1.85
2023-05-05T06:03:46.380Z,1.40
2023-05-05T06:06:13.140Z,2.05
2023-05-05T06:08:39.860Z,2.15
2023-05-05T06:11:06.604Z,1.87
2023-05-05T06:13:33.428Z,1.75
2023-05-05T06:16:00.427Z,2.13
2023-05-05T06:18:27.342Z,1.60
2023-05-05T06:20:54.128Z,1.55
2023-05-05T06:23:20.901Z,1.80
2023-05-05T06:25:48.075Z,2.17
2023-05-05T06:28:14.857Z,2.08
2023-05-05T06:30:41.620Z,1.70
2023-05-05T06:33:08.474Z,1.80
2023-05-05T06:35:35.207Z,1.67
2023-05-05T06:38:01.903Z,2.00
2023-05-05T06:40:28.688Z,2.17
2023-05-05T06:42:55.510Z,2.00
2023-05-05T06:45:22.273Z,2.28
2023-05-05T06:47:49.609Z,2.00
2023-05-05T06:50:16.658Z,2.03
2023-05-05T06:52:43.388Z,1.98
2023-05-05T06:55:10.257Z,2.17
2023-05-05T06:57:36.998Z,2.03
2023-05-05T07:00:09.811Z,2.43
2023-05-05T07:02:37.216Z,1.85
2023-05-05T07:05:04.403Z,1.90
2023-05-05T07:07:32.452Z,2.00
2023-05-05T07:09:59.230Z,2.03
2023-05-05T07:12:25.925Z,1.67
2023-05-05T07:14:52.681Z,1.92
2023-05-05T07:17:19.401Z,2.25
2023-05-05T07:19:46.151Z,1.88
2023-05-05T07:22:12.882Z,2.10
2023-05-05T07:24:39.561Z,2.47
2023-05-05T07:27:07.067Z,2.40
2023-05-05T07:29:33.825Z,2.00
2023-05-05T07:32:00.735Z,2.25
2023-05-05T07:34:27.869Z,2.10
2023-05-05T07:36:56.436Z,2.20
2023-05-05T07:39:23.193Z,2.13
2023-05-05T07:41:50.036Z,2.05
2023-05-05T07:44:16.814Z,2.13
2023-05-05T07:46:43.549Z,2.08
2023-05-05T07:49:10.477Z,2.30
2023-05-05T07:51:37.703Z,1.90
2023-05-05T07:54:04.426Z,2.38
2023-05-05T07:56:31.194Z,2.50
2023-05-05T07:58:57.896Z,1.50
2023-05-05T08:01:24.560Z,2.37
2023-05-05T08:03:51.519Z,2.72
2023-05-05T08:06:25.294Z,2.33
2023-05-05T08:08:53.504Z,2.90
2023-05-05T08:11:21.794Z,2.63
2023-05-05T08:13:48.779Z,2.97
2023-05-05T08:16:15.904Z,2.65
2023-05-05T08:18:42.812Z,2.33
2023-05-05T08:21:09.722Z,2.70
2023-05-05T08:23:36.419Z,2.30
2023-05-05T08:26:03.667Z,1.73
2023-05-05T08:28:30.574Z,2.63
2023-05-05T08:30:57.322Z,2.38
2023-05-05T08:33:24.025Z,2.72
2023-05-05T08:35:50.869Z,2.00
2023-05-05T08:38:19.136Z,2.60
2023-05-05T08:40:45.943Z,1.98
2023-05-05T08:43:12.727Z,2.55
2023-05-05T08:45:40.827Z,2.47
2023-05-05T08:48:07.736Z,1.55
2023-05-05T08:50:34.564Z,2.67
2023-05-05T08:53:22.504Z,2.78
2023-05-05T08:55:52.506Z,2.45
2023-05-05T08:58:19.685Z,2.40
2023-05-05T09:00:46.779Z,2.60
2023-05-05T09:03:13.658Z,3.00
2023-05-05T09:05:40.544Z,2.58
2023-05-05T09:08:10.034Z,2.22
2023-05-05T09:10:36.914Z,2.72
2023-05-05T09:13:05.376Z,2.63
2023-05-05T09:15:33.090Z,2.83
2023-05-05T09:18:00.833Z,2.70
2023-05-05T09:20:37.576Z,2.85
2023-05-05T09:23:20.064Z,2.30
2023-05-05T09:25:48.822Z,2.42
2023-05-05T09:28:17.181Z,2.53
2023-05-05T09:30:45.443Z,2.63
2023-05-05T09:33:12.384Z,2.40
2023-05-05T09:35:55.834Z,2.55
2023-05-05T09:38:23.410Z,2.40
2023-05-05T09:40:53.794Z,2.40
2023-05-05T09:43:21.998Z,2.20
2023-05-05T09:45:49.227Z,2.20
2023-05-05T09:48:29.753Z,2.40
2023-05-05T09:50:57.186Z,2.17
2023-05-05T09:53:24.405Z,2.40
2023-05-05T09:55:55.222Z,2.35
2023-05-05T09:58:24.136Z,2.50
2023-05-05T10:00:51.006Z,2.53
2023-05-05T10:03:17.913Z,2.35
2023-05-05T10:05:55.708Z,2.50
2023-05-05T10:08:30.519Z,1.98
2023-05-05T10:11:00.735Z,2.22
2023-05-05T10:13:27.968Z,2.55
2023-05-05T10:15:56.124Z,2.88
2023-05-05T10:18:27.052Z,2.00
2023-05-05T10:21:01.341Z,2.42
2023-05-05T10:23:49.072Z,2.45
2023-05-05T10:26:15.973Z,2.42
2023-05-05T10:29:04.128Z,2.17
2023-05-05T10:32:00.607Z,2.77
2023-05-05T10:34:35.846Z,2.88
2023-05-05T10:37:04.643Z,2.75
2023-05-05T10:39:31.545Z,2.85
2023-05-05T10:42:02.001Z,2.63
2023-05-05T10:44:32.056Z,2.20
2023-05-05T10:46:58.799Z,2.53
2023-05-05T10:49:41.539Z,2.20
2023-05-05T10:52:38.178Z,2.33
2023-05-05T10:55:16.354Z,2.67
2023-05-05T10:57:44.706Z,2.70
2023-05-05T11:00:31.858Z,1.85
2023-05-05T11:03:18.545Z,2.38
2023-05-05T11:06:12.687Z,2.17
2023-05-05T11:08:43.926Z,2.70
2023-05-05T11:11:11.297Z,2.37
2023-05-05T11:13:38.988Z,2.15
2023-05-05T11:16:06.064Z,2.22
2023-05-05T11:18:37.042Z,2.78
2023-05-05T11:21:07.328Z,2.45
2023-05-05T11:23:34.358Z,2.87
2023-05-05T11:26:01.903Z,2.42
2023-05-05T11:28:32.397Z,1.95
2023-05-05T11:31:02.286Z,2.10
2023-05-05T11:33:33.311Z,2.03
2023-05-05T11:36:07.556Z,2.60
2023-05-05T11:39:11.956Z,2.35
2023-05-05T11:42:06.588Z,2.10
2023-05-05T11:44:36.380Z,2.40
2023-05-05T11:47:06.122Z,2.20
2023-05-05T11:49:34.076Z,2.23
2023-05-05T11:52:02.434Z,2.42
2023-05-05T11:54:29.412Z,2.30
2023-05-05T11:57:00.662Z,1.90
2023-05-05T11:59:27.615Z,2.05
2023-05-05T12:01:54.437Z,2.60
2023-05-05T12:04:21.438Z,2.10
2023-05-05T12:06:49.260Z,2.38
2023-05-05T12:09:20.235Z,2.17
2023-05-05T12:11:54.067Z,2.28
2023-05-05T12:14:21.172Z,2.60
2023-05-05T12:17:06.697Z,2.30
2023-05-05T12:19:33.856Z,2.58
2023-05-05T12:22:04.477Z,2.10
2023-05-05T12:24:31.667Z,2.17
2023-05-05T12:27:11.260Z,2.10
2023-05-05T12:29:38.243Z,2.30
2023-05-05T12:32:05.425Z,2.15
2023-05-05T12:34:32.294Z,2.40
2023-05-05T12:36:59.141Z,2.10
2023-05-05T12:39:36.708Z,2.17
2023-05-05T12:42:04.434Z,2.13
2023-05-05T12:44:38.065Z,1.80
2023-05-05T12:47:05.057Z,1.95
2023-05-05T12:49:34.462Z,1.65
2023-05-05T12:52:01.656Z,2.13
2023-05-05T12:54:29.841Z,2.00
2023-05-05T12:56:59.703Z,2.10
2023-05-05T12:59:27.553Z,2.40
2023-05-05T13:01:59.972Z,2.25
2023-05-05T13:04:27.987Z,2.33
2023-05-05T13:07:14.342Z,2.22
2023-05-05T13:09:41.359Z,2.10
2023-05-05T13:12:13.877Z,2.17
2023-05-05T13:14:40.944Z,2.00
2023-05-05T13:17:07.911Z,2.40
2023-05-05T13:19:42.938Z,2.00
2023-05-05T13:22:13.015Z,2.00
2023-05-05T13:24:50.684Z,1.98
2023-05-05T13:27:18.177Z,2.10
2023-05-05T13:29:45.004Z,1.80
2023-05-05T13:32:11.897Z,2.05
2023-05-05T13:34:39.542Z,1.88
2023-05-05T13:37:06.572Z,2.22
2023-05-05T13:39:33.474Z,1.80
2023-05-05T13:42:00.254Z,1.67
2023-05-05T13:44:27.047Z,2.10
2023-05-05T13:46:54.006Z,2.38
2023-05-05T13:49:20.905Z,2.38
2023-05-05T13:51:47.657Z,2.20
2023-05-05T13:54:14.444Z,2.80
2023-05-05T13:56:41.332Z,1.77
2023-05-05T13:59:08.200Z,1.83
2023-05-05T14:01:35.202Z,1.55
2023-05-05T14:04:05.154Z,2.13
2023-05-05T14:06:33.012Z,1.70
2023-05-05T14:08:59.900Z,2.22
2023-05-05T14:11:26.717Z,2.30
2023-05-05T14:13:53.453Z,2.25
2023-05-05T14:16:20.340Z,2.10
2023-05-05T14:18:47.172Z,2.43
2023-05-05T14:21:13.960Z,2.28
2023-05-05T14:23:40.880Z,2.03
2023-05-05T14:26:09.171Z,2.15
2023-05-05T14:28:36.146Z,2.25
2023-05-05T14:31:02.954Z,2.07
2023-05-05T14:33:31.109Z,2.35
2023-05-05T14:35:57.829Z,2.13
2023-05-05T14:38:24.727Z,1.55
2023-05-05T14:40:51.490Z,1.90
2023-05-05T14:43:18.638Z,2.30
2023-05-05T14:45:45.548Z,1.90
2023-05-05T14:48:12.346Z,2.00
2023-05-05T14:50:40.709Z,2.55
2023-05-05T14:53:07.568Z,2.10
2023-05-05T14:55:34.337Z,2.33
2023-05-05T14:58:01.391Z,2.03
2023-05-05T15:00:28.663Z,1.70
2023-05-05T15:02:55.572Z,1.58
2023-05-05T15:05:22.432Z,1.90
2023-05-05T15:07:49.395Z,1.80
2023-05-05T15:10:17.260Z,1.70
2023-05-05T15:12:45.064Z,1.40
2023-05-05T15:15:12.048Z,1.70
2023-05-05T15:17:39.024Z,1.63
2023-05-05T15:20:06.907Z,1.53
2023-05-05T15:22:33.861Z,1.30
2023-05-05T15:25:01.373Z,1.52
2023-05-05T15:27:28.358Z,1.75
2023-05-05T15:29:55.460Z,1.35
2023-05-05T15:32:22.389Z,1.40
2023-05-05T15:34:50.526Z,1.60
2023-05-05T15:37:17.542Z,1.30
2023-05-05T15:39:44.311Z,1.58
2023-05-05T15:42:11.185Z,1.63
2023-05-05T15:44:38.113Z,1.60
2023-05-05T15:47:05.157Z,1.58
2023-05-05T15:49:32.103Z,1.55
2023-05-05T15:51:58.964Z,1.40
2023-05-05T15:54:26.081Z,1.80
2023-05-05T15:56:52.963Z,1.43
2023-05-05T15:59:19.731Z,1.77
2023-05-05T16:01:47.314Z,1.50
2023-05-05T16:04:14.200Z,1.45
2023-05-05T16:06:41.195Z,1.50
2023-05-05T16:09:08.018Z,1.60
2023-05-05T16:11:35.063Z,1.30
2023-05-05T16:14:01.923Z,1.50
2023-05-05T16:16:28.815Z,1.70
2023-05-05T16:18:55.755Z,1.70
2023-05-05T16:21:22.567Z,1.33
2023-05-05T16:23:49.353Z,1.65
2023-05-05T16:26:16.211Z,1.52
2023-05-05T16:28:43.116Z,1.60
2023-05-05T16:31:11.133Z,1.67
2023-05-05T16:33:43.573Z,1.67
2023-05-05T16:36:11.645Z,1.30
2023-05-05T16:38:39.216Z,1.67
2023-05-05T16:41:07.173Z,1.80
2023-05-05T16:43:34.219Z,2.00
2023-05-05T16:46:01.068Z,1.50
2023-05-05T16:48:28.006Z,1.67
2023-05-05T16:50:57.110Z,1.38
2023-05-05T16:53:24.237Z,1.70
2023-05-05T16:55:54.777Z,1.80
2023-05-05T16:58:22.565Z,1.60
2023-05-05T17:00:50.107Z,1.85
2023-05-05T17:03:17.375Z,1.65
2023-05-05T17:05:45.139Z,1.73
2023-05-05T17:08:14.384Z,1.58
2023-05-05T17:10:42.085Z,1.73
2023-05-05T17:13:09.533Z,2.05
2023-05-05T17:15:37.529Z,1.77
2023-05-05T17:18:05.164Z,1.52
2023-05-05T17:20:32.117Z,1.65
2023-05-05T17:22:58.985Z,1.80
2023-05-05T17:25:28.591Z,1.70
2023-05-05T17:27:55.713Z,1.45
2023-05-05T17:30:22.570Z,1.67
2023-05-05T17:32:49.523Z,1.95
2023-05-05T17:35:16.526Z,1.40
2023-05-05T17:37:43.407Z,1.38
2023-05-05T17:40:10.606Z,1.50
2023-05-05T17:42:38.464Z,1.92
2023-05-05T17:45:05.847Z,1.80
2023-05-05T17:47:32.752Z,1.43
2023-05-05T17:49:59.693Z,1.90
2023-05-05T17:52:26.623Z,1.45
2023-05-05T17:54:53.433Z,2.10
2023-05-05T17:57:23.076Z,1.90
2023-05-05T17:59:50.480Z,1.70
2023-05-05T18:02:17.439Z,1.63
2023-05-05T18:04:44.346Z,1.83
2023-05-05T18:07:12.465Z,1.83
2023-05-05T18:09:39.509Z,1.67
2023-05-05T18:12:07.844Z,1.70
2023-05-05T18:14:34.706Z,1.80
2023-05-05T18:17:01.591Z,1.83
2023-05-05T18:19:28.462Z,2.15
2023-05-05T18:21:55.297Z,1.65
2023-05-05T18:24:22.205Z,2.13
2023-05-05T18:26:50.522Z,1.60
2023-05-05T18:29:21.766Z,2.03
2023-05-05T18:31:51.823Z,2.00
2023-05-05T18:34:19.463Z,1.98
2023-05-05T18:36:46.770Z,1.53
2023-05-05T18:39:14.120Z,2.03
2023-05-05T18:41:41.185Z,1.67
2023-05-05T18:44:08.168Z,1.80
2023-05-05T18:46:35.114Z,2.10
2023-05-05T18:49:02.313Z,1.90
2023-05-05T18:51:29.147Z,1.70
2023-05-05T18:53:56.019Z,1.90
2023-05-05T18:56:22.858Z,2.20
2023-05-05T18:58:49.978Z,2.00
2023-05-05T19:01:17.241Z,2.10
2023-05-05T19:03:50.399Z,2.08
2023-05-05T19:06:17.400Z,2.20
2023-05-05T19:08:45.739Z,1.85
2023-05-05T19:11:14.798Z,2.13
2023-05-05T19:13:41.885Z,1.80
2023-05-05T19:16:08.671Z,2.42
2023-05-05T19:18:35.575Z,2.38
2023-05-05T19:21:02.406Z,2.10
2023-05-05T19:23:29.170Z,2.00
2023-05-05T19:25:55.957Z,1.97
2023-05-05T19:28:22.814Z,2.40
2023-05-05T19:30:49.682Z,2.17
2023-05-05T19:33:16.604Z,2.30
2023-05-05T19:35:43.867Z,2.03
2023-05-05T19:38:10.997Z,2.33
2023-05-05T19:40:38.917Z,2.30
2023-05-05T19:43:05.758Z,2.10
2023-05-05T19:45:33.698Z,2.00
2023-05-05T19:48:01.547Z,2.30
2023-05-05T19:50:30.408Z,2.13
2023-05-05T19:52:57.951Z,2.20
2023-05-05T19:55:24.999Z,1.90
2023-05-05T19:57:51.875Z,2.20
2023-05-05T20:00:19.752Z,2.10
2023-05-05T20:02:48.669Z,2.13
2023-05-05T20:05:17.332Z,2.20
2023-05-05T20:07:44.971Z,2.08
2023-05-05T20:10:13.453Z,2.00
2023-05-05T20:12:42.551Z,2.10
2023-05-05T20:15:11.378Z,2.43
2023-05-05T20:17:38.224Z,2.40
2023-05-05T20:20:05.505Z,2.53
2023-05-05T20:22:32.365Z,2.30
2023-05-05T20:24:59.178Z,2.22
2023-05-05T20:27:26.734Z,1.93
2023-05-05T20:29:55.366Z,2.50
2023-05-05T20:32:22.198Z,2.30
2023-05-05T20:34:48.940Z,1.95
2023-05-05T20:37:15.800Z,2.08
2023-05-05T20:39:43.831Z,1.97
2023-05-05T20:42:11.093Z,1.85
2023-05-05T20:44:38.418Z,2.28
2023-05-05T20:47:05.663Z,1.92
2023-05-05T20:49:32.843Z,2.33
2023-05-05T20:51:59.620Z,2.00
2023-05-05T20:54:30.139Z,2.15
2023-05-05T20:56:58.205Z,2.20
2023-05-05T20:59:25.076Z,1.80
2023-05-05T21:01:51.886Z,1.88
2023-05-05T21:04:18.721Z,2.00
2023-05-05T21:06:45.998Z,2.17
2023-05-05T21:09:12.965Z,2.13
2023-05-05T21:11:39.685Z,2.20
2023-05-05T21:14:06.432Z,2.15
2023-05-05T21:16:33.316Z,2.40
2023-05-05T21:19:00.151Z,2.30
2023-05-05T21:21:26.981Z,2.38
2023-05-05T21:23:57.685Z,2.40
2023-05-05T21:26:25.195Z,2.08
2023-05-05T21:28:52.602Z,1.90
2023-05-05T21:31:22.112Z,2.40
2023-05-05T21:33:49.701Z,1.92
2023-05-05T21:36:17.678Z,1.63
2023-05-05T21:38:44.538Z,2.35
2023-05-05T21:41:11.400Z,2.20
2023-05-05T21:43:38.169Z,2.10
2023-05-05T21:46:05.415Z,2.10
2023-05-05T21:48:32.685Z,1.85
2023-05-05T21:50:59.539Z,2.30
2023-05-05T21:53:26.479Z,2.07
2023-05-05T21:55:53.288Z,2.13
2023-05-05T21:58:20.357Z,2.28
2023-05-05T22:00:50.195Z,2.58
2023-05-05T22:03:17.616Z,2.10
2023-05-05T22:05:44.637Z,2.47
2023-05-05T22:08:11.463Z,2.53
2023-05-05T22:10:39.317Z,2.13
2023-05-05T22:13:06.281Z,1.85
2023-05-05T22:15:45.376Z,2.25
2023-05-05T22:18:13.880Z,2.40
2023-05-05T22:20:40.696Z,2.25
2023-05-05T22:23:07.545Z,2.45
2023-05-05T22:25:34.413Z,2.17
2023-05-05T22:28:01.278Z,2.40
2023-05-05T22:30:28.142Z,2.20
2023-05-05T22:32:55.271Z,1.83
2023-05-05T22:35:22.178Z,2.05
2023-05-05T22:37:48.974Z,2.40
2023-05-05T22:40:15.883Z,2.33
2023-05-05T22:42:42.740Z,2.10
2023-05-05T22:45:10.521Z,1.95
2023-05-05T22:47:37.664Z,2.10
2023-05-05T22:50:04.753Z,2.45
2023-05-05T22:52:31.627Z,2.13
2023-05-05T22:54:58.484Z,2.43
2023-05-05T22:57:25.325Z,2.28
2023-05-05T22:59:52.328Z,2.33
2023-05-05T23:02:19.226Z,2.30
2023-05-05T23:04:46.419Z,2.20
2023-05-05T23:07:13.448Z,2.30
2023-05-05T23:09:41.080Z,2.13
2023-05-05T23:12:08.087Z,2.47
2023-05-05T23:14:35.430Z,2.00
2023-05-05T23:17:02.283Z,2.22
2023-05-05T23:19:32.173Z,2.00
2023-05-05T23:21:59.809Z,2.13
2023-05-05T23:24:27.171Z,2.13
2023-05-05T23:26:54.107Z,2.13
2023-05-05T23:29:21.089Z,2.33
2023-05-05T23:31:47.910Z,2.30
2023-05-05T23:34:14.777Z,2.33
2023-05-05T23:36:41.547Z,2.35
2023-05-05T23:39:08.388Z,2.40
2023-05-05T23:41:35.232Z,2.60
2023-05-05T23:44:02.008Z,2.80
2023-05-05T23:46:29.448Z,2.58
2023-05-05T23:48:56.668Z,2.30
2023-05-05T23:51:23.567Z,2.03
2023-05-05T23:53:50.426Z,2.10
2023-05-05T23:56:17.224Z,2.43
2023-05-05T23:58:44.073Z,2.40
